createdAt,value
2019-02-25T00:01:37.812Z,100174.86
2019-02-25T00:04:08.377Z,100163.48
2019-02-25T00:06:38.931Z,100157.19
2019-02-25T00:09:09.530Z,100144.86
2019-02-25T00:11:40.445Z,100160.33
2019-02-25T00:14:10.809Z,100161.47
2019-02-25T00:16:42.027Z,100156.87
2019-02-25T00:19:12.357Z,100155.59
2019-02-25T00:21:42.745Z,100153.61
2019-02-25T00:24:13.058Z,100154.48
2019-02-25T00:26:43.482Z,100151.52
2019-02-25T00:29:13.882Z,100160.28
2019-02-25T00:31:44.337Z,100165.34
2019-02-25T00:34:14.697Z,100168.87
2019-02-25T00:36:45.449Z,100156.53
2019-02-25T00:39:15.945Z,100159.75
2019-02-25T00:41:46.439Z,100163.58
2019-02-25T00:44:16.864Z,100165.98
2019-02-25T00:46:47.546Z,100151.91
2019-02-25T00:49:18.483Z,100144.02
2019-02-25T00:51:49.329Z,100136.05
2019-02-25T00:54:19.784Z,100124.35
2019-02-25T00:56:51.201Z,100131.92
2019-02-25T00:59:21.621Z,100127.25
2019-02-25T01:01:52.082Z,100129.63
2019-02-25T01:04:22.585Z,100134.78
2019-02-25T01:06:53.095Z,100110.39
2019-02-25T01:09:23.574Z,100119.21
2019-02-25T01:11:54.061Z,100099.00
2019-02-25T01:14:24.485Z,100117.93
2019-02-25T01:16:54.887Z,100109.70
2019-02-25T01:19:25.320Z,100120.91
2019-02-25T01:21:56.093Z,100112.03
2019-02-25T01:24:26.418Z,100103.45
2019-02-25T01:26:57.270Z,100101.79
2019-02-25T01:29:27.606Z,100098.62
2019-02-25T01:31:57.942Z,100124.24
2019-02-25T01:34:28.445Z,100114.81
2019-02-25T01:36:58.949Z,100127.83
2019-02-25T01:39:29.384Z,100103.84
2019-02-25T01:41:59.956Z,100110.11
2019-02-25T01:44:30.507Z,100111.86
2019-02-25T01:47:00.962Z,100119.66
2019-02-25T01:49:31.360Z,100127.05
2019-02-25T01:52:01.800Z,100122.38
2019-02-25T01:54:32.345Z,100119.94
2019-02-25T01:57:02.899Z,100119.34
2019-02-25T01:59:33.493Z,100107.02
2019-02-25T02:02:05.610Z,100119.95
2019-02-25T02:04:36.135Z,100128.23
2019-02-25T02:07:06.543Z,100129.36
2019-02-25T02:09:37.126Z,100115.64
2019-02-25T02:12:07.515Z,100123.52
2019-02-25T02:14:39.084Z,100123.17
2019-02-25T02:17:09.652Z,100119.72
2019-02-25T02:19:41.009Z,100110.06
2019-02-25T02:22:11.410Z,100120.51
2019-02-25T02:24:41.793Z,100111.55
2019-02-25T02:27:12.248Z,100101.97
2019-02-25T02:29:42.717Z,100089.64
2019-02-25T02:32:13.056Z,100102.06
2019-02-25T02:34:43.496Z,100099.19
2019-02-25T02:37:13.909Z,100096.09
2019-02-25T02:39:44.384Z,100088.88
2019-02-25T02:42:22.074Z,100095.43
2019-02-25T02:44:55.394Z,100088.00
2019-02-25T02:47:44.454Z,100088.25
2019-02-25T02:50:18.378Z,100094.09
2019-02-25T02:52:48.800Z,100080.13
2019-02-25T02:55:19.391Z,100083.05
2019-02-25T02:57:49.733Z,100094.63
2019-02-25T03:00:21.074Z,100092.12
2019-02-25T03:02:51.474Z,100084.22
2019-02-25T03:05:21.895Z,100082.88
2019-02-25T03:07:52.408Z,100078.22
2019-02-25T03:10:23.039Z,100077.06
2019-02-25T03:12:53.373Z,100072.23
2019-02-25T03:15:23.842Z,100060.38
2019-02-25T03:17:54.207Z,100058.75
2019-02-25T03:20:24.612Z,100055.91
2019-02-25T03:22:55.097Z,100055.25
2019-02-25T03:25:25.432Z,100049.41
2019-02-25T03:27:55.879Z,100044.70
2019-02-25T03:30:26.344Z,100041.38
2019-02-25T03:32:56.825Z,100039.90
2019-02-25T03:35:27.251Z,100046.61
2019-02-25T03:37:57.675Z,100050.00
2019-02-25T03:40:28.121Z,100050.63
2019-02-25T03:42:58.608Z,100059.67
2019-02-25T03:45:29.614Z,100058.52
2019-02-25T03:48:00.073Z,100066.06
2019-02-25T03:50:30.590Z,100072.23
2019-02-25T03:53:01.100Z,100075.00
2019-02-25T03:55:31.587Z,100075.00
2019-02-25T03:58:01.964Z,100059.34
2019-02-25T04:00:32.372Z,100056.70
2019-02-25T04:03:02.806Z,100056.75
2019-02-25T04:05:33.433Z,100049.88
2019-02-25T04:08:03.981Z,100052.68
2019-02-25T04:10:34.429Z,100065.62
2019-02-25T04:13:05.651Z,100054.56
2019-02-25T04:15:39.679Z,100046.53
2019-02-25T04:18:10.125Z,100051.56
2019-02-25T04:20:40.533Z,100065.58
2019-02-25T04:23:10.992Z,100059.16
2019-02-25T04:25:41.396Z,100045.70
2019-02-25T04:28:11.857Z,100046.87
2019-02-25T04:30:42.318Z,100045.70
2019-02-25T04:33:12.803Z,100049.91
2019-02-25T04:35:44.368Z,100043.21
2019-02-25T04:38:14.852Z,100056.42
2019-02-25T04:40:45.270Z,100044.69
2019-02-25T04:43:15.807Z,100038.84
2019-02-25T04:45:46.225Z,100035.67
2019-02-25T04:48:16.734Z,100042.55
2019-02-25T04:50:47.276Z,100029.66
2019-02-25T04:53:17.764Z,100030.16
2019-02-25T04:55:48.184Z,100026.14
2019-02-25T04:58:18.675Z,100025.30
2019-02-25T05:00:49.068Z,100026.99
2019-02-25T05:03:19.518Z,100014.95
2019-02-25T05:05:49.947Z,100015.12
2019-02-25T05:08:20.332Z,100007.41
2019-02-25T05:10:50.780Z,99997.06
2019-02-25T05:13:21.358Z,100001.73
2019-02-25T05:15:51.747Z,100002.47
2019-02-25T05:18:22.155Z,100000.12
2019-02-25T05:20:52.570Z,99999.13
2019-02-25T05:23:24.015Z,99990.09
2019-02-25T05:25:54.443Z,99995.26
2019-02-25T05:28:24.869Z,99993.48
2019-02-25T05:30:55.352Z,99987.41
2019-02-25T05:33:25.732Z,99969.39
2019-02-25T05:35:56.139Z,99974.44
2019-02-25T05:38:26.676Z,99978.45
2019-02-25T05:40:57.296Z,99992.34
2019-02-25T05:43:28.310Z,99986.67
2019-02-25T05:45:58.771Z,99995.38
2019-02-25T05:48:29.274Z,99970.50
2019-02-25T05:50:59.735Z,99966.48
2019-02-25T05:53:30.134Z,99968.97
2019-02-25T05:56:00.527Z,99984.19
2019-02-25T05:58:31.019Z,99967.45
2019-02-25T06:01:01.446Z,99970.98
2019-02-25T06:03:32.045Z,99972.14
2019-02-25T06:06:02.463Z,99994.34
2019-02-25T06:08:32.851Z,99993.13
2019-02-25T06:11:03.310Z,100020.55
2019-02-25T06:13:33.770Z,100003.70
2019-02-25T06:16:04.144Z,100021.15
2019-02-25T06:18:36.293Z,100024.02
2019-02-25T06:21:06.686Z,100033.98
2019-02-25T06:23:37.214Z,100034.03
2019-02-25T06:26:07.664Z,100037.86
2019-02-25T06:28:38.211Z,100027.62
2019-02-25T06:31:08.585Z,100027.47
2019-02-25T06:33:39.052Z,100022.05
2019-02-25T06:36:09.477Z,100018.33
2019-02-25T06:38:39.893Z,100006.30
2019-02-25T06:41:10.592Z,99995.34
2019-02-25T06:43:41.042Z,99999.16
2019-02-25T06:46:11.452Z,100016.50
2019-02-25T06:48:42.174Z,100018.42
2019-02-25T06:51:12.675Z,100016.92
2019-02-25T06:53:43.205Z,100016.27
2019-02-25T06:56:13.533Z,100013.27
2019-02-25T06:58:43.923Z,100007.09
2019-02-25T07:01:14.415Z,100011.81
2019-02-25T07:03:46.652Z,100005.28
2019-02-25T07:06:21.434Z,100005.78
2019-02-25T07:09:13.635Z,100002.07
2019-02-25T07:12:09.318Z,99995.13
2019-02-25T07:14:44.579Z,99993.72
2019-02-25T07:17:34.250Z,99992.79
2019-02-25T07:20:17.804Z,100001.45
2019-02-25T07:23:10.224Z,99990.11
2019-02-25T07:25:59.588Z,99981.30
2019-02-25T07:28:54.760Z,99985.89
2019-02-25T07:31:43.501Z,100000.20
2019-02-25T07:34:20.188Z,99984.18
2019-02-25T07:37:08.159Z,99999.10
2019-02-25T07:39:50.646Z,99997.30
2019-02-25T07:42:35.662Z,99989.77
2019-02-25T07:45:15.012Z,99999.70
2019-02-25T07:47:53.986Z,99986.11
2019-02-25T07:50:55.335Z,99978.42
2019-02-25T07:53:48.643Z,99971.23
2019-02-25T07:56:33.289Z,99970.73
2019-02-25T07:59:12.655Z,99962.84
2019-02-25T08:01:57.488Z,99976.63
2019-02-25T08:04:39.004Z,99984.35
2019-02-25T08:07:28.332Z,99974.45
2019-02-25T08:10:24.081Z,99995.94
2019-02-25T08:13:04.765Z,99990.27
2019-02-25T08:15:43.614Z,99994.11
2019-02-25T08:18:22.199Z,99994.30
2019-02-25T08:21:00.092Z,99977.30
2019-02-25T08:23:41.453Z,99976.78
2019-02-25T08:26:30.741Z,99984.14
2019-02-25T08:29:18.602Z,99978.23
2019-02-25T08:32:23.978Z,99986.80
2019-02-25T08:35:19.216Z,100007.92
2019-02-25T08:38:24.823Z,100003.66
2019-02-25T08:41:26.806Z,100002.80
2019-02-25T08:44:08.626Z,99997.92
2019-02-25T08:47:03.134Z,100011.20
2019-02-25T08:49:40.477Z,99995.58
2019-02-25T08:52:10.987Z,99988.65
2019-02-25T08:54:41.456Z,99986.45
2019-02-25T08:57:12.055Z,99992.19
2019-02-25T08:59:42.924Z,99989.30
2019-02-25T09:02:13.564Z,99994.13
2019-02-25T09:04:44.076Z,100000.16
2019-02-25T09:07:14.474Z,100012.48
2019-02-25T09:09:45.050Z,99993.03
2019-02-25T09:12:15.496Z,100026.53
2019-02-25T09:14:46.017Z,99999.91
2019-02-25T09:17:16.498Z,99982.11
2019-02-25T09:19:47.033Z,99945.96
2019-02-25T09:22:17.454Z,99949.45
2019-02-25T09:24:47.958Z,99944.98
2019-02-25T09:27:18.661Z,99946.16
2019-02-25T09:29:49.110Z,99964.03
2019-02-25T09:32:19.636Z,99969.84
2019-02-25T09:34:50.119Z,99972.53
2019-02-25T09:37:20.591Z,99969.22
2019-02-25T09:39:52.020Z,99975.55
2019-02-25T09:42:22.802Z,99997.61
2019-02-25T09:44:53.232Z,99991.12
2019-02-25T09:47:23.741Z,99993.52
2019-02-25T09:49:54.273Z,99991.50
2019-02-25T09:52:24.759Z,100002.69
2019-02-25T09:54:55.365Z,100019.56
2019-02-25T09:57:25.833Z,100020.89
2019-02-25T09:59:56.429Z,100007.98
2019-02-25T10:02:27.116Z,100003.44
2019-02-25T10:04:57.600Z,99991.54
2019-02-25T10:07:28.014Z,99984.80
2019-02-25T10:09:58.885Z,100001.00
2019-02-25T10:12:29.357Z,100011.00
2019-02-25T10:14:59.859Z,99996.03
2019-02-25T10:17:30.330Z,99994.66
2019-02-25T10:20:00.872Z,99982.75
2019-02-25T10:22:32.848Z,100017.50
2019-02-25T10:25:05.126Z,100044.20
2019-02-25T10:27:35.630Z,100029.05
2019-02-25T10:30:08.874Z,100014.92
2019-02-25T10:32:39.313Z,100027.95
2019-02-25T10:35:11.119Z,100011.48
2019-02-25T10:37:43.826Z,100026.94
2019-02-25T10:40:15.547Z,100018.30
2019-02-25T10:42:46.736Z,100008.74
2019-02-25T10:45:17.842Z,100021.70
2019-02-25T10:47:49.464Z,100006.01
2019-02-25T10:50:21.055Z,99995.38
2019-02-25T10:52:51.703Z,100006.89
2019-02-25T10:55:34.129Z,100001.15
2019-02-25T10:58:06.185Z,99973.73
2019-02-25T11:00:39.442Z,99981.48
2019-02-25T11:03:10.722Z,99963.81
2019-02-25T11:05:42.792Z,99957.63
2019-02-25T11:08:15.091Z,99950.13
2019-02-25T11:10:55.747Z,99970.27
2019-02-25T11:13:27.625Z,99949.91
2019-02-25T11:15:58.302Z,99940.84
2019-02-25T11:18:28.929Z,99941.80
2019-02-25T11:21:01.182Z,99929.57
2019-02-25T11:23:31.484Z,99925.25
2019-02-25T11:26:02.265Z,99911.89
2019-02-25T11:28:35.639Z,99950.69
2019-02-25T11:31:05.688Z,99933.56
2019-02-25T11:33:36.078Z,99913.37
2019-02-25T11:36:06.599Z,99923.61
2019-02-25T11:38:37.464Z,99899.39
2019-02-25T11:41:09.484Z,99899.88
2019-02-25T11:43:40.082Z,99894.04
2019-02-25T11:46:10.829Z,99854.27
2019-02-25T11:48:41.318Z,99888.83
2019-02-25T11:51:11.744Z,99887.92
2019-02-25T11:53:42.240Z,99881.28
2019-02-25T11:56:12.783Z,99863.77
2019-02-25T11:58:43.273Z,99885.81
2019-02-25T12:01:13.889Z,99889.72
2019-02-25T12:03:44.460Z,99877.49
2019-02-25T12:06:14.958Z,99867.55
2019-02-25T12:08:45.549Z,99860.66
2019-02-25T12:11:17.127Z,99855.77
2019-02-25T12:13:49.594Z,99854.48
2019-02-25T12:16:21.736Z,99851.11
2019-02-25T12:18:52.208Z,99869.52
2019-02-25T12:21:22.770Z,99846.70
2019-02-25T12:23:53.306Z,99834.59
2019-02-25T12:26:23.903Z,99834.49
2019-02-25T12:28:54.463Z,99827.63
2019-02-25T12:31:25.109Z,99820.52
2019-02-25T12:33:55.465Z,99827.16
2019-02-25T12:36:25.917Z,99828.94
2019-02-25T12:38:56.441Z,99822.84
2019-02-25T12:41:27.398Z,99805.39
2019-02-25T12:43:57.804Z,99810.00
2019-02-25T12:46:28.254Z,99810.04
2019-02-25T12:48:59.590Z,99799.05
2019-02-25T12:51:30.118Z,99788.82
2019-02-25T12:54:00.519Z,99793.00
2019-02-25T12:56:31.252Z,99765.25
2019-02-25T12:59:01.727Z,99760.68
2019-02-25T13:01:32.307Z,99762.47
2019-02-25T13:04:02.662Z,99775.24
2019-02-25T13:06:33.132Z,99754.60
2019-02-25T13:09:05.066Z,99755.69
2019-02-25T13:11:37.115Z,99744.59
2019-02-25T13:14:07.454Z,99730.73
2019-02-25T13:16:38.227Z,99719.80
2019-02-25T13:19:08.633Z,99733.79
2019-02-25T13:21:39.112Z,99713.66
2019-02-25T13:24:09.970Z,99725.20
2019-02-25T13:26:40.394Z,99722.49
2019-02-25T13:29:10.804Z,99740.34
2019-02-25T13:31:41.420Z,99730.08
2019-02-25T13:34:11.846Z,99741.09
2019-02-25T13:36:42.402Z,99741.73
2019-02-25T13:39:13.073Z,99732.84
2019-02-25T13:41:43.859Z,99737.47
2019-02-25T13:44:14.232Z,99734.02
2019-02-25T13:46:44.680Z,99727.16
2019-02-25T13:49:15.355Z,99724.22
2019-02-25T13:51:45.950Z,99724.44
2019-02-25T13:54:16.459Z,99726.45
2019-02-25T13:56:46.929Z,99722.59
2019-02-25T13:59:17.420Z,99720.73
2019-02-25T14:01:47.832Z,99725.02
2019-02-25T14:04:18.263Z,99719.20
2019-02-25T14:06:48.992Z,99718.27
2019-02-25T14:09:19.408Z,99723.37
2019-02-25T14:11:50.814Z,99713.74
2019-02-25T14:14:21.440Z,99705.14
2019-02-25T14:16:51.963Z,99720.72
2019-02-25T14:19:22.385Z,99694.98
2019-02-25T14:21:52.819Z,99685.22
2019-02-25T14:24:23.785Z,99688.25
2019-02-25T14:26:54.630Z,99684.16
2019-02-25T14:29:26.475Z,99696.95
2019-02-25T14:31:57.967Z,99691.67
2019-02-25T14:34:28.666Z,99691.02
2019-02-25T14:36:59.852Z,99697.25
2019-02-25T14:39:32.952Z,99700.70
2019-02-25T14:42:04.281Z,99702.38
2019-02-25T14:44:37.903Z,99710.28
2019-02-25T14:47:19.822Z,99706.48
2019-02-25T14:49:42.782Z,99704.66
2019-02-25T14:52:12.764Z,99703.23
2019-02-25T14:54:43.287Z,99701.66
2019-02-25T14:57:15.590Z,99679.52
2019-02-25T14:59:46.178Z,99671.07
2019-02-25T15:02:16.881Z,99661.96
2019-02-25T15:04:47.523Z,99664.82
2019-02-25T15:07:18.166Z,99663.25
2019-02-25T15:09:49.348Z,99650.78
2019-02-25T15:12:20.750Z,99647.28
2019-02-25T15:14:51.464Z,99649.98
2019-02-25T15:17:22.806Z,99648.78
2019-02-25T15:19:53.263Z,99657.91
2019-02-25T15:22:28.026Z,99655.39
2019-02-25T15:24:57.108Z,99657.19
2019-02-25T15:27:28.371Z,99684.69
2019-02-25T15:29:58.868Z,99680.56
2019-02-25T15:32:29.549Z,99680.64
2019-02-25T15:35:01.483Z,99674.91
2019-02-25T15:37:32.034Z,99668.77
2019-02-25T15:40:03.921Z,99663.75
2019-02-25T15:42:37.202Z,99668.09
2019-02-25T15:45:08.671Z,99677.84
2019-02-25T15:47:40.014Z,99676.38
2019-02-25T15:50:14.690Z,99678.23
2019-02-25T15:52:45.648Z,99683.02
2019-02-25T15:55:19.517Z,99688.55
2019-02-25T15:57:50.410Z,99695.95
2019-02-25T16:00:23.471Z,99684.73
2019-02-25T16:02:55.849Z,99700.21
2019-02-25T16:05:29.570Z,99685.52
2019-02-25T16:08:00.613Z,99677.85
2019-02-25T16:10:32.086Z,99672.86
2019-02-25T16:13:08.239Z,99674.72
2019-02-25T16:15:35.312Z,99681.06
2019-02-25T16:18:05.785Z,99685.95
2019-02-25T16:20:36.422Z,99678.31
2019-02-25T16:23:09.469Z,99678.25
2019-02-25T16:25:39.822Z,99670.03
2019-02-25T16:28:12.572Z,99667.33
2019-02-25T16:30:44.540Z,99649.87
2019-02-25T16:33:15.050Z,99646.21
2019-02-25T16:35:46.198Z,99636.88
2019-02-25T16:38:16.842Z,99643.73
2019-02-25T16:40:47.648Z,99644.03
2019-02-25T16:43:18.935Z,99665.63
2019-02-25T16:45:49.521Z,99674.20
2019-02-25T16:48:23.636Z,99685.61
2019-02-25T16:50:52.963Z,99687.84
2019-02-25T16:53:23.530Z,99694.53
2019-02-25T16:55:54.286Z,99681.30
2019-02-25T16:58:25.466Z,99675.66
2019-02-25T17:00:58.549Z,99671.33
2019-02-25T17:03:31.650Z,99664.54
2019-02-25T17:06:04.113Z,99677.19
2019-02-25T17:08:34.555Z,99688.16
2019-02-25T17:11:05.974Z,99678.16
2019-02-25T17:13:37.105Z,99678.67
2019-02-25T17:16:17.895Z,99684.45
2019-02-25T17:18:41.089Z,99678.47
2019-02-25T17:21:11.862Z,99679.73
2019-02-25T17:23:42.302Z,99676.08
2019-02-25T17:26:14.955Z,99678.77
2019-02-25T17:28:45.391Z,99684.24
2019-02-25T17:31:16.336Z,99687.63
2019-02-25T17:33:49.285Z,99682.34
2019-02-25T17:36:20.309Z,99675.30
2019-02-25T17:38:51.974Z,99674.34
2019-02-25T17:41:23.544Z,99674.38
2019-02-25T17:43:54.881Z,99670.67
2019-02-25T17:46:28.850Z,99675.39
2019-02-25T17:48:58.963Z,99683.93
2019-02-25T17:51:29.498Z,99681.14
2019-02-25T17:54:00.131Z,99666.56
2019-02-25T17:56:30.587Z,99665.80
2019-02-25T17:59:03.782Z,99672.91
2019-02-25T18:01:34.526Z,99660.95
2019-02-25T18:04:07.141Z,99673.45
2019-02-25T18:06:41.456Z,99659.81
2019-02-25T18:09:14.262Z,99674.67
2019-02-25T18:11:45.395Z,99676.09
2019-02-25T18:14:17.611Z,99665.34
2019-02-25T18:16:50.823Z,99662.02
2019-02-25T18:19:22.616Z,99660.70
2019-02-25T18:21:53.178Z,99654.00
2019-02-25T18:24:26.794Z,99663.67
2019-02-25T18:26:55.899Z,99666.45
2019-02-25T18:29:26.402Z,99665.41
2019-02-25T18:31:57.139Z,99666.68
2019-02-25T18:34:28.044Z,99656.20
2019-02-25T18:36:59.691Z,99655.95
2019-02-25T18:39:31.621Z,99667.55
2019-02-25T18:42:02.236Z,99675.25
2019-02-25T18:44:32.598Z,99662.44
2019-02-25T18:47:03.000Z,99650.91
2019-02-25T18:49:35.016Z,99661.45
2019-02-25T18:52:05.995Z,99660.95
2019-02-25T18:54:36.921Z,99656.30
2019-02-25T18:57:08.015Z,99657.06
2019-02-25T18:59:38.477Z,99659.02
2019-02-25T19:02:10.291Z,99654.66
2019-02-25T19:04:41.788Z,99643.25
2019-02-25T19:07:13.412Z,99643.63
2019-02-25T19:09:45.241Z,99636.13
2019-02-25T19:12:16.898Z,99643.85
2019-02-25T19:14:51.070Z,99655.81
2019-02-25T19:17:21.046Z,99637.48
2019-02-25T19:19:51.720Z,99637.69
2019-02-25T19:22:24.579Z,99625.73
2019-02-25T19:24:55.064Z,99651.44
2019-02-25T19:27:27.777Z,99650.45
2019-02-25T19:30:00.705Z,99638.77
2019-02-25T19:32:31.389Z,99633.81
2019-02-25T19:35:04.022Z,99635.28
2019-02-25T19:37:37.687Z,99633.07
2019-02-25T19:40:12.135Z,99640.66
2019-02-25T19:42:39.819Z,99643.73
2019-02-25T19:45:10.896Z,99630.12
2019-02-25T19:47:43.282Z,99634.63
2019-02-25T19:50:14.846Z,99622.27
2019-02-25T19:52:46.687Z,99627.28
2019-02-25T19:55:18.388Z,99621.05
2019-02-25T19:57:50.265Z,99638.52
2019-02-25T20:00:25.724Z,99634.99
2019-02-25T20:03:05.125Z,99623.34
2019-02-25T20:05:29.260Z,99622.34
2019-02-25T20:07:59.741Z,99625.02
2019-02-25T20:10:30.747Z,99622.53
2019-02-25T20:13:01.087Z,99622.77
2019-02-25T20:15:31.679Z,99619.87
2019-02-25T20:18:02.157Z,99611.13
2019-02-25T20:20:36.435Z,99604.41
2019-02-25T20:23:08.568Z,99605.67
2019-02-25T20:25:44.447Z,99603.91
2019-02-25T20:28:15.845Z,99599.73
2019-02-25T20:30:46.896Z,99599.73
2019-02-25T20:33:18.300Z,99597.06
2019-02-25T20:35:53.056Z,99600.73
2019-02-25T20:38:22.800Z,99600.21
2019-02-25T20:40:55.359Z,99594.27
2019-02-25T20:43:28.262Z,99607.70
2019-02-25T20:46:02.911Z,99610.67
2019-02-25T20:48:32.679Z,99615.33
2019-02-25T20:51:04.762Z,99614.48
2019-02-25T20:53:37.681Z,99603.56
2019-02-25T20:56:07.736Z,99602.53
2019-02-25T20:58:40.039Z,99603.84
2019-02-25T21:01:12.110Z,99594.23
2019-02-25T21:03:45.825Z,99595.42
2019-02-25T21:06:16.740Z,99607.69
2019-02-25T21:08:47.160Z,99601.80
2019-02-25T21:11:17.656Z,99613.56
2019-02-25T21:13:48.177Z,99611.30
2019-02-25T21:16:18.787Z,99609.47
2019-02-25T21:18:50.926Z,99605.99
2019-02-25T21:21:21.287Z,99610.75
2019-02-25T21:23:51.820Z,99613.44
2019-02-25T21:26:25.471Z,99612.73
2019-02-25T21:28:57.896Z,99612.40
2019-02-25T21:31:26.671Z,99618.16
2019-02-25T21:33:58.786Z,99610.91
2019-02-25T21:36:29.555Z,99615.50
2019-02-25T21:39:01.880Z,99609.33
2019-02-25T21:41:35.017Z,99603.47
2019-02-25T21:44:06.125Z,99605.69
2019-02-25T21:46:36.549Z,99607.45
2019-02-25T21:49:08.412Z,99606.58
2019-02-25T21:51:39.952Z,99603.55
2019-02-25T21:54:11.353Z,99593.44
2019-02-25T21:56:41.830Z,99593.73
2019-02-25T21:59:14.975Z,99600.38
2019-02-25T22:01:45.582Z,99592.18
2019-02-25T22:04:18.056Z,99585.81
2019-02-25T22:06:51.002Z,99588.50
2019-02-25T22:09:35.460Z,99596.70
2019-02-25T22:11:52.552Z,99584.95
2019-02-25T22:14:25.513Z,99584.95
2019-02-25T22:16:56.603Z,99574.70
2019-02-25T22:19:27.644Z,99569.32
2019-02-25T22:22:00.236Z,99569.33
2019-02-25T22:24:32.079Z,99565.32
2019-02-25T22:27:02.465Z,99549.90
2019-02-25T22:29:34.872Z,99542.64
2019-02-25T22:32:06.492Z,99531.73
2019-02-25T22:34:37.935Z,99531.73
2019-02-25T22:37:12.397Z,99526.70
2019-02-25T22:39:40.993Z,99543.17
2019-02-25T22:42:12.188Z,99533.86
2019-02-25T22:44:45.154Z,99529.53
2019-02-25T22:47:17.816Z,99525.98
2019-02-25T22:49:47.855Z,99532.86
2019-02-25T22:52:21.840Z,99523.94
2019-02-25T22:54:52.139Z,99536.52
2019-02-25T22:57:23.631Z,99528.45
2019-02-25T22:59:55.288Z,99530.16
2019-02-25T23:02:28.049Z,99518.92
2019-02-25T23:04:59.780Z,99515.83
2019-02-25T23:07:30.374Z,99514.80
2019-02-25T23:10:01.174Z,99520.82
2019-02-25T23:12:31.897Z,99516.81
2019-02-25T23:15:03.849Z,99517.52
2019-02-25T23:17:37.574Z,99515.88
2019-02-25T23:20:09.523Z,99533.98
2019-02-25T23:22:39.920Z,99516.95
2019-02-25T23:25:11.567Z,99519.02
2019-02-25T23:27:42.085Z,99523.38
2019-02-25T23:30:13.778Z,99523.39
2019-02-25T23:32:44.408Z,99509.12
2019-02-25T23:35:16.471Z,99509.61
2019-02-25T23:37:51.045Z,99519.91
2019-02-25T23:40:19.748Z,99507.42
2019-02-25T23:42:51.288Z,99502.75
2019-02-25T23:45:23.171Z,99488.91
2019-02-25T23:47:57.612Z,99493.20
2019-02-25T23:50:27.947Z,99483.11
2019-02-25T23:52:57.982Z,99470.50
2019-02-25T23:55:29.662Z,99478.70
2019-02-25T23:58:00.207Z,99494.12
